Au Gres, Michigan
Current Conditions -  °F | °C
As of 6:53 AM on Sunday 23 Nov 2014 (Local Time) from KOSC Reporting Station
Haze Haze  
Wind Chill: 40°   Ceiling: 2400
Heat Index: 43°   Visibility: 3mi
Dew Point: 43°   Wind: 5mph
Humidity: 100%   Direction: 190°S
Pressure: 29.83"   Gusts: NA
Location:  44.05°N, 83.7°W
Report Text: KOSC 231153Z AUTO 19004KT 3SM BR SCT014 OVC024 06/06 A2983 RMK AO2 T00610061
Loading
Personal Weather Stations






























Interactive Weather Map New forecast layout! Learn more

10-Day Weather Forecast

Advertisements
Track Severe Weather on mobile